Time;durP1;ratioP1;P1;durP2;ratioP2;P2;SDS_P1;SDS_P2;PMS_P1;PMS_P2;Temp;Humidity;BMP_temperature;BMP_pressure;BME280_temperature;BME280_humidity;BME280_pressure;Samples;Min_cycle;Max_cycle;Signal;HPM_P1;HPM_P2
2022/09/02 00:04:54;;;;;;;4.85;2.35;;;;;;;9.68;83.27;99513.81;4499332;76;21647;-83
2022/09/02 00:10:57;;;;;;;3.80;2.52;;;;;;;9.53;83.24;99516.80;4478119;77;21545;-83
2022/09/02 00:16:59;;;;;;;3.95;2.22;;;;;;;9.45;83.79;99518.57;4480404;77;21033;-83
2022/09/02 00:23:01;;;;;;;5.10;2.52;;;;;;;9.41;84.12;99515.54;4483282;77;21031;-82
2022/09/02 00:29:03;;;;;;;4.78;2.70;;;;;;;9.38;84.08;99518.39;4477531;77;21038;-82
2022/09/02 00:35:07;;;;;;;3.67;2.42;;;;;;;9.28;83.98;99512.11;4484137;77;20973;-83
2022/09/02 00:41:10;;;;;;;7.58;2.15;;;;;;;9.19;84.37;99512.07;4476993;78;20992;-83
2022/09/02 00:47:14;;;;;;;5.10;2.15;;;;;;;9.14;84.53;99502.20;4476353;77;21001;-82
2022/09/02 00:53:16;;;;;;;4.70;1.80;;;;;;;9.04;85.06;99501.36;4471502;77;20976;-82
2022/09/02 00:59:26;;;;;;;4.62;1.90;;;;;;;9.11;85.65;99502.88;4473090;77;21017;-82
2022/09/02 01:05:32;;;;;;;8.00;2.70;;;;;;;9.14;85.71;99492.65;4451822;78;21103;-82
2022/09/02 01:11:42;;;;;;;6.33;2.60;;;;;;;9.13;85.42;99490.27;4455887;78;20977;-81
2022/09/02 01:17:47;;;;;;;6.78;2.55;;;;;;;9.16;85.52;99497.16;4458909;78;21078;-82
2022/09/02 01:23:51;;;;;;;5.95;1.92;;;;;;;9.22;85.60;99494.97;4463322;78;20991;-82
2022/09/02 01:29:56;;;;;;;3.98;2.10;;;;;;;9.14;85.41;99485.02;4462087;78;20970;-82
2022/09/02 01:35:58;;;;;;;3.52;1.98;;;;;;;9.13;85.95;99495.73;4457313;78;21570;-82
2022/09/02 01:42:00;;;;;;;5.25;2.22;;;;;;;9.05;85.77;99490.64;4459108;77;21573;-82
2022/09/02 01:48:03;;;;;;;4.85;2.10;;;;;;;8.97;85.92;99494.34;4434442;78;20962;-82
2022/09/02 01:54:06;;;;;;;6.30;2.33;;;;;;;8.91;86.33;99497.70;4312049;81;21040;-82
2022/09/02 02:00:10;;;;;;;4.87;2.58;;;;;;;8.78;86.23;99496.19;4454581;78;21011;-82
2022/09/02 02:06:16;;;;;;;7.03;2.60;;;;;;;8.68;86.52;99498.06;4426953;79;21001;-82
2022/09/02 02:12:19;;;;;;;4.00;1.90;;;;;;;8.71;86.95;99491.33;4428066;79;21066;-81
2022/09/02 02:18:21;;;;;;;4.17;2.17;;;;;;;8.68;86.66;99494.77;4442704;77;21008;-82
2022/09/02 02:24:22;;;;;;;4.12;2.00;;;;;;;8.52;86.77;99491.80;4456781;78;21001;-82
2022/09/02 02:30:23;;;;;;;3.80;1.85;;;;;;;8.57;87.45;99486.87;4332290;80;21031;-82
2022/09/02 02:36:25;;;;;;;6.50;2.52;;;;;;;8.51;87.73;99488.83;4502358;76;21574;-82
2022/09/02 02:42:26;;;;;;;5.53;2.60;;;;;;;8.42;87.13;99485.47;4489711;76;21508;-82
2022/09/02 02:48:28;;;;;;;10.40;4.25;;;;;;;8.33;87.83;99485.61;4490388;76;21012;-82
2022/09/02 02:54:30;;;;;;;5.97;2.20;;;;;;;8.29;87.54;99482.01;4483900;77;21912;-82
2022/09/02 03:00:33;;;;;;;5.90;2.42;;;;;;;8.28;88.52;99472.81;4339139;79;21002;-81
2022/09/02 03:06:35;;;;;;;7.33;3.20;;;;;;;8.23;87.99;99478.51;4345588;79;21068;-82
2022/09/02 03:12:38;;;;;;;6.67;3.20;;;;;;;8.12;87.80;99476.02;4484915;77;21488;-82
2022/09/02 03:18:40;;;;;;;10.20;3.42;;;;;;;8.03;87.82;99478.91;4472624;77;20983;-82
2022/09/02 03:24:43;;;;;;;7.25;2.95;;;;;;;7.97;88.70;99476.20;4471892;77;21014;-81
2022/09/02 03:30:46;;;;;;;7.35;2.87;;;;;;;7.94;88.58;99483.69;4469762;77;21011;-82
2022/09/02 03:36:49;;;;;;;9.05;2.95;;;;;;;7.85;88.51;99476.22;4481987;77;21006;-82
2022/09/02 03:42:52;;;;;;;4.97;2.52;;;;;;;7.77;88.73;99477.15;4474970;77;21022;-81
2022/09/02 03:48:54;;;;;;;6.92;3.15;;;;;;;7.66;88.80;99480.13;4477518;77;20996;-81
2022/09/02 03:54:56;;;;;;;4.33;2.92;;;;;;;7.50;89.08;99490.16;4476496;77;21510;-81
2022/09/02 04:00:58;;;;;;;5.67;3.45;;;;;;;7.45;89.11;99489.03;4479885;77;21036;-81
2022/09/02 04:07:00;;;;;;;6.67;3.08;;;;;;;7.37;89.38;99485.86;4467117;77;21051;-81
2022/09/02 04:13:01;;;;;;;13.30;3.67;;;;;;;7.45;89.84;99498.56;4464845;78;21495;-81
2022/09/02 04:19:04;;;;;;;5.35;3.27;;;;;;;7.35;89.52;99504.45;4457250;77;21461;-81
2022/09/02 04:25:07;;;;;;;6.33;2.87;;;;;;;7.30;89.68;99508.20;4465187;77;21032;-81
2022/09/02 04:31:13;;;;;;;8.53;3.83;;;;;;;7.31;90.06;99510.38;4504627;76;20965;-81
2022/09/02 04:37:15;;;;;;;10.72;3.98;;;;;;;7.29;90.55;99515.36;4480525;76;21043;-81
2022/09/02 04:43:17;;;;;;;5.92;2.98;;;;;;;7.38;90.63;99512.75;4480874;76;21022;-81
2022/09/02 04:49:18;;;;;;;9.35;3.98;;;;;;;7.38;90.94;99517.39;4491261;77;21456;-81
2022/09/02 04:55:21;;;;;;;10.35;3.20;;;;;;;7.39;91.29;99518.41;4510078;77;20992;-81
2022/09/02 05:01:26;;;;;;;7.53;3.00;;;;;;;7.44;91.34;99520.91;4497063;76;20940;-81
2022/09/02 05:07:28;;;;;;;3.52;2.05;;;;;;;7.55;91.70;99515.79;4471059;77;20983;-81
2022/09/02 05:13:30;;;;;;;8.28;3.83;;;;;;;7.64;92.16;99513.17;4451775;77;21483;-81
2022/09/02 05:19:33;;;;;;;10.63;4.50;;;;;;;7.76;92.44;99513.73;4306909;80;21008;-81
2022/09/02 05:25:37;;;;;;;9.33;4.42;;;;;;;7.88;92.74;99507.68;4335971;79;21044;-81
2022/09/02 05:31:40;;;;;;;9.63;4.25;;;;;;;8.03;93.11;99507.53;4331141;80;21453;-81
2022/09/02 05:37:42;;;;;;;9.63;4.50;;;;;;;8.27;93.59;99500.64;4476916;77;20987;-81
2022/09/02 05:43:44;;;;;;;7.95;4.87;;;;;;;8.49;93.55;99509.64;4472205;77;21005;-81
2022/09/02 05:49:46;;;;;;;9.58;5.10;;;;;;;8.70;93.72;99505.33;4474987;77;21026;-81
2022/09/02 05:55:49;;;;;;;7.60;5.35;;;;;;;8.89;94.03;99504.89;4485445;77;21071;-81
2022/09/02 06:01:52;;;;;;;7.85;5.60;;;;;;;9.09;94.48;99502.47;4456520;77;20955;-81
2022/09/02 06:07:54;;;;;;;9.43;5.10;;;;;;;9.34;94.93;99499.77;4511719;76;20970;-81
2022/09/02 06:13:56;;;;;;;9.43;4.60;;;;;;;9.71;95.12;99502.94;4536401;76;22184;-82
2022/09/02 06:19:58;;;;;;;6.97;4.10;;;;;;;10.07;95.61;99494.95;4475012;77;21571;-81
2022/09/02 06:26:01;;;;;;;15.03;4.92;;;;;;;10.50;95.43;99495.47;4495302;76;21050;-81
2022/09/02 06:32:03;;;;;;;6.28;3.50;;;;;;;10.98;95.60;99495.34;4485964;76;21551;-82
2022/09/02 06:38:06;;;;;;;6.67;3.72;;;;;;;11.49;94.64;99499.34;4519652;76;20994;-82
2022/09/02 06:44:10;;;;;;;8.73;3.35;;;;;;;11.90;94.18;99505.84;4502066;76;21479;-82
2022/09/02 06:50:13;;;;;;;5.00;2.92;;;;;;;12.15;93.31;99511.86;4517504;76;21003;-81
2022/09/02 06:56:15;;;;;;;8.53;2.67;;;;;;;12.36;92.80;99513.50;4506726;76;21497;-82
2022/09/02 07:02:17;;;;;;;7.85;2.67;;;;;;;12.57;92.23;99508.24;4525589;76;21034;-81
2022/09/02 07:08:20;;;;;;;5.50;3.02;;;;;;;12.77;91.69;99514.93;4465867;75;21004;-82
2022/09/02 07:14:23;;;;;;;7.40;2.67;;;;;;;13.01;91.40;99509.73;4456711;77;21051;-82
2022/09/02 07:20:26;;;;;;;8.35;2.47;;;;;;;13.34;91.06;99508.84;4455690;77;21000;-82
2022/09/02 07:26:29;;;;;;;4.78;2.77;;;;;;;13.65;90.49;99507.71;4451903;77;20953;-84
2022/09/02 07:32:31;;;;;;;5.97;3.02;;;;;;;13.96;89.72;99503.56;4468879;77;21039;-83
2022/09/02 07:38:33;;;;;;;4.28;2.33;;;;;;;14.24;89.28;99513.37;4455794;77;20925;-82
2022/09/02 07:44:36;;;;;;;5.53;2.22;;;;;;;14.44;88.55;99518.77;4471071;77;20985;-83
2022/09/02 07:50:39;;;;;;;5.45;2.35;;;;;;;14.72;88.17;99514.72;4479024;77;20992;-83
2022/09/02 07:56:42;;;;;;;4.60;2.15;;;;;;;15.06;87.94;99516.58;4297399;79;21538;-84
2022/09/02 08:02:44;;;;;;;4.22;2.02;;;;;;;15.44;87.30;99511.11;4346416;80;21054;-84
2022/09/02 08:08:48;;;;;;;4.35;2.42;;;;;;;15.98;86.92;99507.67;4449132;77;21522;-83
2022/09/02 08:14:49;;;;;;;6.05;2.30;;;;;;;16.34;85.85;99503.03;4461177;77;20999;-84
2022/09/02 08:20:51;;;;;;;5.62;2.20;;;;;;;16.62;84.98;99502.94;4458956;77;21067;-84
2022/09/02 08:26:53;;;;;;;4.05;2.20;;;;;;;16.80;84.33;99504.23;4460437;77;20994;-84
2022/09/02 08:32:55;;;;;;;5.30;1.57;;;;;;;17.06;83.56;99494.77;4465683;77;21008;-84
2022/09/02 08:38:56;;;;;;;4.28;1.42;;;;;;;17.30;82.57;99492.21;4476615;77;21073;-85
2022/09/02 08:45:09;;;;;;;2.80;1.45;;;;;;;17.46;81.56;99483.59;4464300;77;21471;-84
2022/09/02 08:51:34;;;;;;;6.45;1.65;;;;;;;17.63;80.11;99488.80;4328448;80;21011;-85
2022/09/02 08:57:36;;;;;;;4.60;1.37;;;;;;;17.83;79.05;99489.78;4329325;80;20996;-84
2022/09/02 09:03:49;;;;;;;2.37;1.02;;;;;;;18.16;78.57;99478.73;4325431;79;21000;-84
2022/09/02 09:10:24;;;;;;;3.77;1.17;;;;;;;18.57;77.18;99485.58;4301724;81;21413;-85
2022/09/02 09:16:43;;;;;;;3.72;1.25;;;;;;;18.93;76.00;99477.54;4314168;80;20995;-85
2022/09/02 09:22:47;;;;;;;2.62;1.20;;;;;;;19.30;74.86;99477.38;4311224;80;21036;-84
2022/09/02 09:28:50;;;;;;;1.67;1.20;;;;;;;19.73;71.77;99472.05;4299342;80;21089;-85
2022/09/02 09:34:56;;;;;;;2.50;1.27;;;;;;;20.48;72.06;99469.42;4291310;81;21037;-85
2022/09/02 09:41:20;;;;;;;3.10;1.20;;;;;;;21.22;70.80;99461.56;4480541;77;20927;-84
2022/09/02 09:47:25;;;;;;;2.83;1.10;;;;;;;21.92;68.67;99460.39;4458862;77;21552;-85
2022/09/02 09:53:31;;;;;;;2.70;1.10;;;;;;;21.85;67.70;99452.84;4318701;81;20952;-85
2022/09/02 09:59:38;;;;;;;1.70;0.80;;;;;;;21.32;66.17;99450.78;4445197;77;20992;-87
2022/09/02 10:05:39;;;;;;;2.40;0.98;;;;;;;21.75;65.57;99440.75;4477864;77;21571;-88
2022/09/02 10:12:07;;;;;;;3.33;1.00;;;;;;;22.43;56.06;99439.00;4506999;76;21828;-85
2022/09/02 10:18:23;;;;;;;1.95;0.70;;;;;;;22.84;61.40;99442.55;4485793;77;21013;-86
2022/09/02 10:24:44;;;;;;;2.23;0.70;;;;;;;22.92;60.43;99440.31;4488249;76;20983;-85
2022/09/02 10:31:18;;;;;;;1.98;0.98;;;;;;;23.47;59.12;99420.77;4513798;77;21014;-84
2022/09/02 10:37:26;;;;;;;2.55;0.90;;;;;;;23.48;58.37;99425.11;4510269;76;20939;-86
2022/09/02 10:44:19;;;;;;;3.42;0.78;;;;;;;22.16;56.89;99409.34;4477584;77;21017;-86
2022/09/02 10:50:47;;;;;;;1.87;0.82;;;;;;;22.16;56.89;99409.34;4452864;77;21027;-87
2022/09/02 10:57:10;;;;;;;1.45;0.70;;;;;;;22.01;55.89;99420.11;4347897;79;21038;-86
2022/09/02 11:03:29;;;;;;;1.10;0.68;;;;;;;21.58;55.61;99421.84;4394394;78;20979;-86
2022/09/02 11:09:44;;;;;;;1.77;0.82;;;;;;;21.16;54.30;99422.94;4423943;78;20968;-86
2022/09/02 11:16:10;;;;;;;2.80;0.60;;;;;;;21.01;54.35;99411.20;4518729;76;21018;-86
2022/09/02 11:22:25;;;;;;;4.35;0.95;;;;;;;20.46;52.76;99415.43;4473309;77;21046;-86
2022/09/02 11:28:38;;;;;;;1.72;0.68;;;;;;;20.80;52.90;99406.89;4527726;76;21836;-85
2022/09/02 11:34:50;;;;;;;1.55;0.62;;;;;;;21.51;52.99;99391.41;4510592;76;20998;-85
2022/09/02 11:41:28;;;;;;;1.65;0.80;;;;;;;21.34;49.71;99386.30;4527028;76;21003;-84
2022/09/02 11:48:28;;;;;;;1.90;0.90;;;;;;;21.04;50.24;99381.89;4510044;76;21022;-87
2022/09/02 11:54:40;;;;;;;2.72;0.70;;;;;;;21.38;50.13;99371.66;4524668;76;21026;-84
2022/09/02 12:01:03;;;;;;;1.92;0.70;;;;;;;20.79;47.16;99388.64;4475585;77;21055;-85
2022/09/02 12:07:13;;;;;;;1.30;0.60;;;;;;;20.59;46.30;99386.54;4522750;76;21006;-85
2022/09/02 12:13:40;;;;;;;2.42;0.60;;;;;;;20.23;44.95;99378.81;4558707;76;21029;-86
2022/09/02 12:19:48;;;;;;;2.12;0.68;;;;;;;20.41;47.22;99361.72;4532659;75;20978;-86
2022/09/02 12:25:56;;;;;;;2.27;1.00;;;;;;;20.66;46.36;99365.50;4517813;76;21642;-85
2022/09/02 12:31:58;;;;;;;1.80;0.72;;;;;;;20.61;47.10;99350.71;4512022;76;21029;-86
2022/09/02 12:38:26;;;;;;;2.40;0.90;;;;;;;20.63;46.62;99349.67;4538321;76;21907;-85
2022/09/02 12:45:00;;;;;;;2.52;0.90;;;;;;;20.59;46.01;99339.26;4500295;76;21426;-86
2022/09/02 12:51:12;;;;;;;3.35;1.05;;;;;;;20.43;46.04;99336.45;4533029;76;21011;-85
2022/09/02 12:57:18;;;;;;;2.60;0.80;;;;;;;20.49;46.77;99330.55;4517232;76;21932;-86
2022/09/02 13:03:34;;;;;;;2.12;0.70;;;;;;;20.56;46.22;99335.95;4543319;76;21591;-85
2022/09/02 13:09:58;;;;;;;1.30;0.70;;;;;;;20.58;46.09;99327.17;4340223;79;21706;-85
2022/09/02 13:16:20;;;;;;;2.20;0.80;;;;;;;20.49;46.78;99328.36;4335895;80;21054;-85
2022/09/02 13:22:54;;;;;;;2.85;0.70;;;;;;;20.30;47.22;99327.21;4354195;80;20995;-85
2022/09/02 13:29:25;;;;;;;4.30;1.12;;;;;;;20.20;46.96;99316.50;4348414;78;21052;-85
2022/09/02 13:35:27;;;;;;;2.08;0.82;;;;;;;20.16;47.61;99318.59;4328248;80;21038;-85
2022/09/02 13:41:31;;;;;;;3.87;0.90;;;;;;;19.97;47.60;99322.75;4339230;79;21026;-85
2022/09/02 13:47:59;;;;;;;1.72;0.80;;;;;;;19.81;47.34;99321.33;4333272;80;20958;-85
2022/09/02 13:54:01;;;;;;;4.50;0.93;;;;;;;19.76;48.19;99318.42;4342693;79;21059;-85
2022/09/02 14:00:05;;;;;;;2.30;0.70;;;;;;;19.71;48.24;99316.77;4333996;80;21428;-85
2022/09/02 14:06:12;;;;;;;2.87;1.02;;;;;;;19.66;48.13;99313.09;4321646;79;20987;-84
2022/09/02 14:12:13;;;;;;;2.27;1.00;;;;;;;19.48;48.23;99301.58;4501130;78;21523;-86
2022/09/02 14:18:24;;;;;;;2.52;0.80;;;;;;;19.42;48.62;99301.90;4517725;76;21001;-86
2022/09/02 14:24:40;;;;;;;2.12;0.60;;;;;;;19.43;48.70;99297.30;4522487;76;21759;-85
2022/09/02 14:30:54;;;;;;;1.37;1.02;;;;;;;19.35;48.71;99291.71;4511098;76;21701;-86
2022/09/02 14:36:57;;;;;;;3.85;1.25;;;;;;;19.24;49.31;99300.81;4508021;76;21364;-85
2022/09/02 14:43:00;;;;;;;2.20;0.80;;;;;;;19.21;49.82;99295.32;4516377;76;21014;-86
2022/09/02 14:49:12;;;;;;;1.87;0.72;;;;;;;19.26;49.79;99294.84;4346340;80;21080;-85
2022/09/02 14:55:41;;;;;;;1.07;0.80;;;;;;;19.31;49.52;99291.61;4474865;79;20992;-85
2022/09/02 15:01:51;;;;;;;1.95;1.00;;;;;;;19.28;49.83;99282.12;4468032;78;21035;-85
2022/09/02 15:07:52;;;;;;;3.95;1.20;;;;;;;19.28;49.72;99289.69;4457940;78;20985;-85
2022/09/02 15:13:53;;;;;;;3.50;0.70;;;;;;;19.23;50.15;99297.84;4439455;76;20971;-85
2022/09/02 15:19:55;;;;;;;2.83;0.70;;;;;;;19.19;50.61;99286.03;4466518;77;20976;-85
2022/09/02 15:25:56;;;;;;;0.85;0.68;;;;;;;19.14;50.58;99287.91;4459943;77;21464;-85
2022/09/02 15:31:59;;;;;;;2.20;0.62;;;;;;;19.04;50.38;99275.63;4459715;77;21311;-85
2022/09/02 15:38:04;;;;;;;2.60;1.00;;;;;;;18.94;50.44;99278.77;4315573;80;21455;-86
2022/09/02 15:44:11;;;;;;;3.83;0.80;;;;;;;18.78;50.89;99280.05;4308554;80;20981;-86
2022/09/02 15:50:15;;;;;;;1.95;0.80;;;;;;;18.68;50.70;99290.73;4452591;76;21569;-86
2022/09/02 15:56:22;;;;;;;3.25;0.88;;;;;;;18.58;50.84;99288.91;4483866;76;20941;-86
2022/09/02 16:02:27;;;;;;;2.37;0.95;;;;;;;18.48;51.00;99278.17;4459071;76;21031;-85
2022/09/02 16:08:30;;;;;;;3.67;0.93;;;;;;;18.44;51.19;99282.20;4451230;77;21042;-85
2022/09/02 16:14:33;;;;;;;1.57;0.88;;;;;;;18.39;51.53;99281.29;4472984;77;21551;-84
2022/09/02 16:20:35;;;;;;;1.57;0.78;;;;;;;18.31;51.84;99289.50;4486543;77;20969;-86
2022/09/02 16:26:44;;;;;;;2.42;1.05;;;;;;;18.16;52.00;99283.41;4479509;77;20985;-86
2022/09/02 16:32:46;;;;;;;3.42;1.00;;;;;;;18.09;51.98;99284.08;4451884;77;22026;-86
2022/09/02 16:38:48;;;;;;;4.00;0.72;;;;;;;18.02;52.28;99279.45;4469632;77;21953;-85
2022/09/02 16:44:52;;;;;;;2.58;1.02;;;;;;;17.93;52.65;99279.78;4491791;77;20967;-85
2022/09/02 16:50:54;;;;;;;1.90;0.78;;;;;;;17.84;52.73;99283.05;4475269;76;21000;-85
2022/09/02 16:57:06;;;;;;;3.40;1.07;;;;;;;17.75;53.00;99272.30;4457657;77;21012;-86
2022/09/02 17:03:12;;;;;;;2.35;1.00;;;;;;;17.64;53.21;99271.66;4475495;77;20999;-85
2022/09/02 17:22:23;;;;;;;2.02;1.10;;;;;;;17.32;55.41;99276.78;4458809;77;20971;-85
2022/09/02 17:28:25;;;;;;;3.70;1.20;;;;;;;17.16;56.34;99280.11;4481701;77;20991;-85
2022/09/02 17:34:44;;;;;;;3.65;1.60;;;;;;;17.01;56.57;99281.44;4453075;76;21023;-85
2022/09/02 17:53:42;;;;;;;4.97;1.75;;;;;;;16.58;57.34;99274.16;4442006;77;21005;-85
2022/09/02 18:00:00;;;;;;;5.83;1.60;;;;;;;16.46;57.54;99280.17;4345644;80;20984;-86
2022/09/02 18:12:44;;;;;;;2.65;1.45;;;;;;;16.27;58.08;99290.95;4346709;79;21029;-85
2022/09/02 18:26:24;;;;;;;3.15;1.40;;;;;;;15.94;60.56;99288.80;4435021;79;21020;-85
2022/09/02 18:40:17;;;;;;;3.75;1.60;;;;;;;15.64;60.69;99293.48;4465414;77;20944;-85
2022/09/02 18:46:27;;;;;;;6.25;2.02;;;;;;;15.44;60.68;99307.56;4473040;77;21013;-85
2022/09/02 18:52:29;;;;;;;6.70;2.00;;;;;;;15.25;61.21;99301.09;4481090;77;20975;-85
2022/09/02 18:58:51;;;;;;;6.33;1.70;;;;;;;15.06;61.90;99299.56;4483967;77;20971;-85
2022/09/02 19:05:01;;;;;;;3.58;1.87;;;;;;;14.91;62.73;99301.36;4476465;77;21015;-86
2022/09/02 19:11:13;;;;;;;3.70;2.30;;;;;;;14.78;62.34;99307.08;4483407;77;21023;-85
2022/09/02 19:17:20;;;;;;;5.20;2.00;;;;;;;14.71;62.53;99310.62;4437505;78;20990;-85
2022/09/02 19:23:22;;;;;;;5.53;1.87;;;;;;;14.61;62.59;99321.04;4441005;78;20981;-84
2022/09/02 19:29:24;;;;;;;5.85;2.17;;;;;;;14.54;63.03;99313.37;4439979;78;22011;-85
2022/09/02 19:35:34;;;;;;;7.28;2.30;;;;;;;14.48;63.44;99303.92;4447763;78;20991;-85
2022/09/02 19:41:36;;;;;;;3.40;2.17;;;;;;;14.45;63.50;99312.40;4440367;78;21917;-85
2022/09/02 19:47:39;;;;;;;6.67;2.52;;;;;;;14.44;63.55;99313.56;4440150;78;20946;-83
2022/09/02 19:53:42;;;;;;;5.85;2.40;;;;;;;14.43;63.49;99321.64;4376725;80;21037;-86
2022/09/02 19:59:53;;;;;;;4.47;2.12;;;;;;;14.40;63.67;99320.25;4474722;77;20962;-85
2022/09/02 20:05:57;;;;;;;4.70;2.00;;;;;;;14.37;63.35;99322.41;4482963;78;20988;-84
2022/09/02 20:11:58;;;;;;;4.08;2.37;;;;;;;14.35;63.43;99317.30;4461383;76;20983;-85
2022/09/02 20:24:33;;;;;;;4.97;2.85;;;;;;;14.31;62.93;99306.08;4456258;77;20997;-85
2022/09/02 20:30:37;;;;;;;4.60;2.75;;;;;;;14.28;63.04;99306.87;4474629;77;20995;-85
2022/09/02 20:37:17;;;;;;;4.65;2.25;;;;;;;14.23;62.93;99312.72;4421916;77;20958;-84
2022/09/02 20:44:03;;;;;;;6.95;2.50;;;;;;;14.17;62.93;99310.96;4450394;77;20968;-84
2022/09/02 20:50:43;;;;;;;6.22;2.52;;;;;;;14.10;63.02;99313.11;4445911;77;20962;-85
2022/09/02 20:57:31;;;;;;;7.90;2.85;;;;;;;14.00;63.01;99313.86;4455036;76;20969;-84
2022/09/02 21:04:15;;;;;;;5.37;2.80;;;;;;;13.90;63.30;99316.02;4457714;76;20984;-84
2022/09/02 21:10:35;;;;;;;6.25;2.70;;;;;;;13.79;63.19;99319.31;4483978;77;20983;-84
2022/09/02 21:16:45;;;;;;;3.62;2.35;;;;;;;13.70;63.19;99317.49;4456655;77;20984;-84
2022/09/02 21:22:53;;;;;;;4.53;2.47;;;;;;;13.63;63.29;99320.23;4311420;80;21004;-84
2022/09/02 21:29:26;;;;;;;4.72;2.40;;;;;;;13.60;63.42;99327.89;4493947;76;20984;-84
2022/09/02 21:35:51;;;;;;;4.87;1.92;;;;;;;13.54;63.42;99332.77;4466530;77;20975;-85
2022/09/02 21:42:41;;;;;;;4.70;2.08;;;;;;;13.47;64.49;99327.22;4478775;76;20917;-84
2022/09/02 21:49:09;;;;;;;7.53;2.50;;;;;;;13.26;64.72;99334.80;4311284;81;21068;-84
2022/09/02 21:56:10;;;;;;;5.12;2.05;;;;;;;13.23;64.86;99334.19;4149041;83;21086;-84
2022/09/02 22:02:18;;;;;;;6.37;2.20;;;;;;;13.19;64.58;99337.48;4157089;79;21158;-84
2022/09/02 22:08:38;;;;;;;5.62;1.82;;;;;;;13.10;64.77;99341.17;4369167;78;21085;-84
2022/09/02 22:14:54;;;;;;;4.08;2.08;;;;;;;12.96;65.71;99343.79;4349287;79;21558;-84
2022/09/02 22:21:25;;;;;;;3.90;2.00;;;;;;;12.68;65.93;99331.98;4452393;76;21473;-84
2022/09/02 22:28:01;;;;;;;4.00;2.10;;;;;;;12.51;66.99;99333.23;4453091;77;20968;-84
2022/09/02 22:34:06;;;;;;;6.12;2.40;;;;;;;12.46;66.60;99329.45;4486779;77;20988;-83
2022/09/02 22:40:21;;;;;;;5.10;2.00;;;;;;;12.44;67.92;99322.17;4475790;77;21004;-84
2022/09/02 22:53:03;;;;;;;6.40;2.22;;;;;;;12.18;69.15;99318.22;4477590;77;20971;-84
2022/09/02 22:59:17;;;;;;;5.53;2.22;;;;;;;12.10;69.20;99316.56;4322997;79;21037;-84
2022/09/02 23:06:01;;;;;;;5.03;2.20;;;;;;;12.10;69.10;99313.25;4357982;79;21637;-84
2022/09/02 23:19:12;;;;;;;6.17;2.15;;;;;;;11.99;71.20;99312.35;4330025;80;22334;-85
2022/09/02 23:26:08;;;;;;;9.28;2.70;;;;;;;11.98;71.97;99316.84;4448442;77;22124;-85
2022/09/02 23:33:04;;;;;;;6.28;2.75;;;;;;;12.02;71.54;99311.59;4462115;77;21044;-84
2022/09/02 23:45:55;;;;;;;5.25;2.47;;;;;;;12.01;70.71;99305.88;4462230;77;21008;-84
2022/09/02 23:52:43;;;;;;;5.12;2.52;;;;;;;11.96;70.32;99311.73;4328888;80;21501;-84
2022/09/02 23:58:59;;;;;;;6.47;2.00;;;;;;;11.87;70.26;99300.25;4472312;77;20972;-84
